Wisner, NE (68791)

8:36 AM CDT on July 04, 2015 (GMT -0500)
West Point Public Schools Alternative Energy Building | | Change Station
CLOSE
Current Station
Personal Weather Station
Location: West Point, NE
Elevation: 1575 ft
Nearby Weather Stations

Elev 1575 ft 41.84 °N, 96.69 °W | Updated 19 seconds ago

Clear
Clear
65.4 °F
Feels Like 65.4 °F
N
6.0
Wind Variable Wind from SSW
Gusts 9.0 mph

Today
High -- | Low -- °F
--% Chance of Precip.
Yesterday
High -- | Low -- °F
Precip. -- in
5:57 AM 9:06 PM
Waning Gibbous, 92% visible
Pressure 29.99 in
Visibility 4.0 miles
Clouds Clear
Dew Point 60 °F
Humidity 84%
Rainfall 0.00 in
Snow Depth Not available.
UV 2 out of 12
Pollen 4.60 out of 12
Air Quality Not available.
Flu Activity Not available.
METAR KLCG 041315Z AUTO 00000KT 4SM BR CLR 19/18 A2999 RMK AO2 T01880176

More Conditions Fewer Conditions

Pressure 29.99 in
Visibility 4.0 miles
Clouds Clear
Dew Point 60 °F
Humidity 84%
Rainfall 0.00 in
Snow Depth Not available.
UV 2 out of 12
Pollen 4.60 out of 12
Air Quality Not available.
Flu Activity Not available.
METAR KLCG 041315Z AUTO 00000KT 4SM BR CLR 19/18 A2999 RMK AO2 T01880176

More Conditions Fewer Conditions

10-Day Weather Forecast

×

Almanac

Astronomy

Jul. 04, 2015 Rise Set
Actual Time
Civil Twilight
Nautical Twilight
Astronomical Twilight
Moon
Length of Visible Light
Length of Day
Tomorrow will be .
, % of the Moon is Illuminated

Today's Extremes

State Highs State Lows

Community

WunderPhotos

Upload Photos

1,834,964 photos uploaded!

WunderBlogs® & News

Nearby

Air Quality

  Air Quality AQ Index Pollutant
Not available.

Snow Depth

Station Depth Elevation

Earthquake Activity

City Distance Mag. Time & Date
Minimum magnitude displayed is 2.5.

Coastal Water Temperatures

Place Temperature

Stations

Nearby Weather Stations

Station Location Temp. Windchill Dew Point Humidity Wind Precip. Elev Updated Type